Aegean Tiffany — SVAE9 — position and weather

sailwx.info

Track history (hours):
 
Tides and Currents Weather Stations Pressure Air Temp Water Temp Dewpoint Dewpoint Depression Visibility Wind Speed Wind Dir Waves Ship Positions

Aegean Tiffany

Last reported at 2017-Feb-24 21:33 UTC. Time now 2017-Feb-24 21:39 UTC.
Position N 38°02' E 023°36'.

Length 80 m; draft 4.8 m.

Type: Tanker. MMSI: 240870000.

Date/timePositionNaut miles runAvg speedWind from/ knotsBaromVisibWave heightAir tempDewpointWater temp
2017-Feb-24 21:33N 38°02' E 023°36'0 0.0
2017-Feb-24 20:33N 38°02' E 023°36'0 0.0
2017-Feb-24 19:33N 38°02' E 023°36'0 0.0
2017-Feb-24 18:33N 38°02' E 023°36'0 0.0
2017-Feb-24 17:33N 38°02' E 023°36'0 0.1
2017-Feb-24 16:33N 38°02' E 023°36'0 0.4
2017-Feb-24 15:34N 38°02' E 023°35'0 0.0
2017-Feb-24 14:33N 38°02' E 023°35'0 0.4
2017-Feb-24 13:33N 38°01' E 023°35'5 4.7
2017-Feb-24 12:32N 37°57' E 023°37'0 0.0
2017-Feb-24 11:33N 37°57' E 023°37'0 0.0
2017-Feb-24 10:33N 37°57' E 023°37'0 0.0
2017-Feb-24 09:33N 37°57' E 023°37'0 0.0
2017-Feb-24 08:33N 37°57' E 023°37'6 6.1
2017-Feb-24 07:33N 38°02' E 023°32'1 0.6
2017-Feb-24 06:33N 38°02' E 023°32'0 0.1
2017-Feb-24 05:33N 38°02' E 023°32'6 6.2
2017-Feb-24 04:33N 37°58' E 023°26'8 8.1
2017-Feb-24 03:33N 37°56' E 023°16'8 8.4
2017-Feb-24 02:33N 37°55' E 023°05'  
2017-Feb-19 00:33N 37°55' E 023°04'8 7.7
2017-Feb-18 23:33N 37°56' E 023°13'8 7.8
2017-Feb-18 22:33N 37°57' E 023°23'6 6.0
2017-Feb-18 21:33N 38°01' E 023°29'3 2.8
2017-Feb-18 20:33N 38°02' E 023°32'0 0.0
2017-Feb-17 19:18N 38°02' E 023°32'2 3.3
2017-Feb-17 18:33N 38°02' E 023°35'1 0.5
2017-Feb-17 17:33N 38°02' E 023°36'0 0.0
2017-Feb-17 16:32N 38°02' E 023°36'0 0.0
2017-Feb-17 15:33N 38°02' E 023°36'0 0.0
2017-Feb-17 14:33N 38°02' E 023°36'0 0.0
2017-Feb-17 13:33N 38°02' E 023°36'0 0.0
2017-Feb-17 12:33N 38°02' E 023°36'0 0.0
2017-Feb-17 11:33N 38°02' E 023°36'0 0.0
2017-Feb-17 10:33N 38°02' E 023°36'0 0.0
2017-Feb-17 09:34N 38°02' E 023°36'0 0.0
2017-Feb-17 08:34N 38°02' E 023°36'0 0.0
2017-Feb-17 07:33N 38°02' E 023°36'0 0.0
2017-Feb-17 06:33N 38°02' E 023°36'1 0.6
2017-Feb-17 05:34N 38°02' E 023°35'0 0.0
2017-Feb-17 04:33N 38°02' E 023°35'0 0.0
2017-Feb-17 03:33N 38°02' E 023°35'2 2.1
2017-Feb-17 02:33N 38°02' E 023°32'6 6.3
2017-Feb-17 01:33N 37°58' E 023°26'9 8.6
2017-Feb-17 00:34N 37°56' E 023°15'8 8.2
2017-Feb-16 23:34N 37°55' E 023°05'  
Track history (hours):
 
Tides and Currents Weather Stations Pressure Air Temp Water Temp Dewpoint Dewpoint Depression Visibility Wind Speed Wind Dir Waves Ship Positions

Aegean Tiffany

Last reported at 2017-Feb-24 21:33 UTC. Time now 2017-Feb-24 21:39 UTC.
Position N 38°02' E 023°36'.

Length 80 m; draft 4.8 m.

Type: Tanker. MMSI: 240870000.

Date/timePositionNaut miles runAvg speedWind from/ knotsBaromVisibWave heightAir tempDewpointWater temp
2017-Feb-24 21:33N 38°02' E 023°36'0 0.0
2017-Feb-24 20:33N 38°02' E 023°36'0 0.0
2017-Feb-24 19:33N 38°02' E 023°36'0 0.0
2017-Feb-24 18:33N 38°02' E 023°36'0 0.0
2017-Feb-24 17:33N 38°02' E 023°36'0 0.1
2017-Feb-24 16:33N 38°02' E 023°36'0 0.4
2017-Feb-24 15:34N 38°02' E 023°35'0 0.0
2017-Feb-24 14:33N 38°02' E 023°35'0 0.4
2017-Feb-24 13:33N 38°01' E 023°35'5 4.7
2017-Feb-24 12:32N 37°57' E 023°37'0 0.0
2017-Feb-24 11:33N 37°57' E 023°37'0 0.0
2017-Feb-24 10:33N 37°57' E 023°37'0 0.0
2017-Feb-24 09:33N 37°57' E 023°37'0 0.0
2017-Feb-24 08:33N 37°57' E 023°37'6 6.1
2017-Feb-24 07:33N 38°02' E 023°32'1 0.6
2017-Feb-24 06:33N 38°02' E 023°32'0 0.1
2017-Feb-24 05:33N 38°02' E 023°32'6 6.2
2017-Feb-24 04:33N 37°58' E 023°26'8 8.1
2017-Feb-24 03:33N 37°56' E 023°16'8 8.4
2017-Feb-24 02:33N 37°55' E 023°05'  
2017-Feb-19 00:33N 37°55' E 023°04'8 7.7
2017-Feb-18 23:33N 37°56' E 023°13'8 7.8
2017-Feb-18 22:33N 37°57' E 023°23'6 6.0
2017-Feb-18 21:33N 38°01' E 023°29'3 2.8
2017-Feb-18 20:33N 38°02' E 023°32'0 0.0
2017-Feb-17 19:18N 38°02' E 023°32'2 3.3
2017-Feb-17 18:33N 38°02' E 023°35'1 0.5
2017-Feb-17 17:33N 38°02' E 023°36'0 0.0
2017-Feb-17 16:32N 38°02' E 023°36'0 0.0
2017-Feb-17 15:33N 38°02' E 023°36'0 0.0
2017-Feb-17 14:33N 38°02' E 023°36'0 0.0
2017-Feb-17 13:33N 38°02' E 023°36'0 0.0
2017-Feb-17 12:33N 38°02' E 023°36'0 0.0
2017-Feb-17 11:33N 38°02' E 023°36'0 0.0
2017-Feb-17 10:33N 38°02' E 023°36'0 0.0
2017-Feb-17 09:34N 38°02' E 023°36'0 0.0
2017-Feb-17 08:34N 38°02' E 023°36'0 0.0
2017-Feb-17 07:33N 38°02' E 023°36'0 0.0
2017-Feb-17 06:33N 38°02' E 023°36'1 0.6
2017-Feb-17 05:34N 38°02' E 023°35'0 0.0
2017-Feb-17 04:33N 38°02' E 023°35'0 0.0
2017-Feb-17 03:33N 38°02' E 023°35'2 2.1
2017-Feb-17 02:33N 38°02' E 023°32'6 6.3
2017-Feb-17 01:33N 37°58' E 023°26'9 8.6
2017-Feb-17 00:34N 37°56' E 023°15'8 8.2
2017-Feb-16 23:34N 37°55' E 023°05'  

Dump ship's entire track history